sensor_id;sensor_type;location;lat;lon;timestamp;P1;durP1;ratioP1;P2;durP2;ratioP2
23115;SDS011;11727;52.134;5.052;2023-09-12T00:01:28;44.92;;;20.52;;
23115;SDS011;11727;52.134;5.052;2023-09-12T00:03:57;47.58;;;21.48;;
23115;SDS011;11727;52.134;5.052;2023-09-12T00:06:23;49.63;;;20.20;;
23115;SDS011;11727;52.134;5.052;2023-09-12T00:08:49;46.25;;;22.92;;
23115;SDS011;11727;52.134;5.052;2023-09-12T00:11:16;44.23;;;21.20;;
23115;SDS011;11727;52.134;5.052;2023-09-12T00:13:41;45.42;;;21.02;;
23115;SDS011;11727;52.134;5.052;2023-09-12T00:16:07;43.40;;;19.65;;
23115;SDS011;11727;52.134;5.052;2023-09-12T00:18:37;41.33;;;20.10;;
23115;SDS011;11727;52.134;5.052;2023-09-12T00:21:03;53.07;;;19.67;;
23115;SDS011;11727;52.134;5.052;2023-09-12T00:23:29;46.33;;;21.85;;
23115;SDS011;11727;52.134;5.052;2023-09-12T00:25:56;36.88;;;18.00;;
23115;SDS011;11727;52.134;5.052;2023-09-12T00:28:22;41.38;;;18.95;;
23115;SDS011;11727;52.134;5.052;2023-09-12T00:30:48;45.22;;;20.55;;
23115;SDS011;11727;52.134;5.052;2023-09-12T00:33:14;43.70;;;18.73;;
23115;SDS011;11727;52.134;5.052;2023-09-12T00:35:40;46.03;;;18.98;;
23115;SDS011;11727;52.134;5.052;2023-09-12T00:38:05;37.70;;;17.92;;
23115;SDS011;11727;52.134;5.052;2023-09-12T00:40:32;41.92;;;19.52;;
23115;SDS011;11727;52.134;5.052;2023-09-12T00:42:58;43.33;;;19.77;;
23115;SDS011;11727;52.134;5.052;2023-09-12T00:45:24;41.53;;;19.50;;
23115;SDS011;11727;52.134;5.052;2023-09-12T00:47:50;44.97;;;20.08;;
23115;SDS011;11727;52.134;5.052;2023-09-12T00:50:17;43.03;;;19.90;;
23115;SDS011;11727;52.134;5.052;2023-09-12T00:52:45;49.72;;;21.85;;
23115;SDS011;11727;52.134;5.052;2023-09-12T00:55:12;49.50;;;20.83;;
23115;SDS011;11727;52.134;5.052;2023-09-12T00:57:39;45.80;;;18.98;;
23115;SDS011;11727;52.134;5.052;2023-09-12T01:00:06;49.65;;;20.73;;
23115;SDS011;11727;52.134;5.052;2023-09-12T01:02:36;45.92;;;21.40;;
23115;SDS011;11727;52.134;5.052;2023-09-12T01:05:06;45.45;;;19.98;;
23115;SDS011;11727;52.134;5.052;2023-09-12T01:07:33;47.30;;;20.67;;
23115;SDS011;11727;52.134;5.052;2023-09-12T01:10:00;48.08;;;22.02;;
23115;SDS011;11727;52.134;5.052;2023-09-12T01:12:27;42.47;;;19.38;;
23115;SDS011;11727;52.134;5.052;2023-09-12T01:14:52;40.00;;;20.13;;
23115;SDS011;11727;52.134;5.052;2023-09-12T01:17:18;42.13;;;19.98;;
23115;SDS011;11727;52.134;5.052;2023-09-12T01:19:43;43.90;;;19.05;;
23115;SDS011;11727;52.134;5.052;2023-09-12T01:27:55;39.75;;;18.75;;
23115;SDS011;11727;52.134;5.052;2023-09-12T01:30:24;45.35;;;19.13;;
23115;SDS011;11727;52.134;5.052;2023-09-12T01:32:52;45.17;;;20.10;;
23115;SDS011;11727;52.134;5.052;2023-09-12T01:35:19;40.05;;;18.10;;
23115;SDS011;11727;52.134;5.052;2023-09-12T01:37:45;42.08;;;19.13;;
23115;SDS011;11727;52.134;5.052;2023-09-12T01:40:10;43.78;;;19.63;;
23115;SDS011;11727;52.134;5.052;2023-09-12T01:42:38;43.97;;;20.70;;
23115;SDS011;11727;52.134;5.052;2023-09-12T01:45:13;39.67;;;18.45;;
23115;SDS011;11727;52.134;5.052;2023-09-12T01:47:41;52.20;;;21.95;;
23115;SDS011;11727;52.134;5.052;2023-09-12T01:50:08;50.00;;;21.85;;
23115;SDS011;11727;52.134;5.052;2023-09-12T01:52:38;44.45;;;21.02;;
23115;SDS011;11727;52.134;5.052;2023-09-12T01:55:04;44.88;;;19.60;;
23115;SDS011;11727;52.134;5.052;2023-09-12T01:57:31;49.20;;;20.42;;
23115;SDS011;11727;52.134;5.052;2023-09-12T01:59:57;43.90;;;21.77;;
23115;SDS011;11727;52.134;5.052;2023-09-12T02:02:23;47.03;;;20.92;;
23115;SDS011;11727;52.134;5.052;2023-09-12T02:05:02;48.33;;;21.60;;
23115;SDS011;11727;52.134;5.052;2023-09-12T02:07:45;42.85;;;20.35;;
23115;SDS011;11727;52.134;5.052;2023-09-12T02:10:11;40.72;;;20.60;;
23115;SDS011;11727;52.134;5.052;2023-09-12T02:12:37;48.85;;;21.23;;
23115;SDS011;11727;52.134;5.052;2023-09-12T02:15:03;42.00;;;19.02;;
23115;SDS011;11727;52.134;5.052;2023-09-12T02:17:29;48.38;;;22.23;;
23115;SDS011;11727;52.134;5.052;2023-09-12T02:19:55;41.58;;;20.75;;
23115;SDS011;11727;52.134;5.052;2023-09-12T02:22:20;46.00;;;22.77;;
23115;SDS011;11727;52.134;5.052;2023-09-12T02:24:46;47.67;;;24.20;;
23115;SDS011;11727;52.134;5.052;2023-09-12T02:27:12;60.10;;;24.73;;
23115;SDS011;11727;52.134;5.052;2023-09-12T02:29:40;51.47;;;21.70;;
23115;SDS011;11727;52.134;5.052;2023-09-12T02:32:07;47.75;;;22.63;;
23115;SDS011;11727;52.134;5.052;2023-09-12T02:34:33;52.90;;;23.13;;
23115;SDS011;11727;52.134;5.052;2023-09-12T02:36:59;57.92;;;25.35;;
23115;SDS011;11727;52.134;5.052;2023-09-12T02:39:25;58.80;;;25.63;;
23115;SDS011;11727;52.134;5.052;2023-09-12T02:41:50;55.97;;;25.25;;
23115;SDS011;11727;52.134;5.052;2023-09-12T02:44:16;59.65;;;25.83;;
23115;SDS011;11727;52.134;5.052;2023-09-12T02:46:41;46.67;;;23.02;;
23115;SDS011;11727;52.134;5.052;2023-09-12T02:49:07;61.15;;;26.63;;
23115;SDS011;11727;52.134;5.052;2023-09-12T02:51:33;55.83;;;24.73;;
23115;SDS011;11727;52.134;5.052;2023-09-12T02:53:59;61.88;;;26.20;;
23115;SDS011;11727;52.134;5.052;2023-09-12T02:56:24;54.08;;;22.88;;
23115;SDS011;11727;52.134;5.052;2023-09-12T02:58:50;46.70;;;21.38;;
23115;SDS011;11727;52.134;5.052;2023-09-12T03:01:16;53.40;;;24.08;;
23115;SDS011;11727;52.134;5.052;2023-09-12T03:03:42;56.25;;;24.33;;
23115;SDS011;11727;52.134;5.052;2023-09-12T03:06:11;60.17;;;26.08;;
23115;SDS011;11727;52.134;5.052;2023-09-12T03:08:38;56.23;;;26.33;;
23115;SDS011;11727;52.134;5.052;2023-09-12T03:11:08;54.88;;;23.70;;
23115;SDS011;11727;52.134;5.052;2023-09-12T03:13:34;60.72;;;25.92;;
23115;SDS011;11727;52.134;5.052;2023-09-12T03:16:01;49.23;;;23.40;;
23115;SDS011;11727;52.134;5.052;2023-09-12T03:18:27;50.60;;;22.50;;
23115;SDS011;11727;52.134;5.052;2023-09-12T03:20:53;50.13;;;23.48;;
23115;SDS011;11727;52.134;5.052;2023-09-12T03:23:19;53.08;;;24.08;;
23115;SDS011;11727;52.134;5.052;2023-09-12T03:25:45;42.80;;;21.30;;
23115;SDS011;11727;52.134;5.052;2023-09-12T03:28:11;56.88;;;25.75;;
23115;SDS011;11727;52.134;5.052;2023-09-12T03:30:39;66.25;;;28.17;;
23115;SDS011;11727;52.134;5.052;2023-09-12T03:33:05;59.40;;;25.30;;
23115;SDS011;11727;52.134;5.052;2023-09-12T03:35:31;60.05;;;26.17;;
23115;SDS011;11727;52.134;5.052;2023-09-12T03:37:58;62.38;;;26.02;;
23115;SDS011;11727;52.134;5.052;2023-09-12T03:40:24;59.22;;;26.17;;
23115;SDS011;11727;52.134;5.052;2023-09-12T03:42:50;61.22;;;23.70;;
23115;SDS011;11727;52.134;5.052;2023-09-12T03:45:16;58.35;;;24.20;;
23115;SDS011;11727;52.134;5.052;2023-09-12T03:47:41;51.97;;;23.83;;
23115;SDS011;11727;52.134;5.052;2023-09-12T03:50:11;54.13;;;23.05;;
23115;SDS011;11727;52.134;5.052;2023-09-12T03:52:37;47.30;;;21.95;;
23115;SDS011;11727;52.134;5.052;2023-09-12T03:55:03;49.05;;;21.65;;
23115;SDS011;11727;52.134;5.052;2023-09-12T03:57:28;46.47;;;22.17;;
23115;SDS011;11727;52.134;5.052;2023-09-12T03:59:54;53.13;;;22.63;;
23115;SDS011;11727;52.134;5.052;2023-09-12T04:02:20;47.78;;;21.67;;
23115;SDS011;11727;52.134;5.052;2023-09-12T04:04:45;49.80;;;22.17;;
23115;SDS011;11727;52.134;5.052;2023-09-12T04:07:11;46.70;;;20.65;;
23115;SDS011;11727;52.134;5.052;2023-09-12T04:09:36;48.67;;;20.70;;
23115;SDS011;11727;52.134;5.052;2023-09-12T04:12:02;52.25;;;23.27;;
23115;SDS011;11727;52.134;5.052;2023-09-12T04:14:28;48.95;;;21.67;;
23115;SDS011;11727;52.134;5.052;2023-09-12T04:16:53;46.22;;;21.40;;
23115;SDS011;11727;52.134;5.052;2023-09-12T04:19:19;52.90;;;22.35;;
23115;SDS011;11727;52.134;5.052;2023-09-12T04:21:45;45.78;;;21.10;;
23115;SDS011;11727;52.134;5.052;2023-09-12T04:24:10;44.22;;;21.83;;
23115;SDS011;11727;52.134;5.052;2023-09-12T04:26:36;46.13;;;21.17;;
23115;SDS011;11727;52.134;5.052;2023-09-12T04:29:01;48.28;;;21.45;;
23115;SDS011;11727;52.134;5.052;2023-09-12T04:31:27;50.80;;;21.42;;
23115;SDS011;11727;52.134;5.052;2023-09-12T04:33:53;44.65;;;20.00;;
23115;SDS011;11727;52.134;5.052;2023-09-12T04:36:19;43.55;;;19.92;;
23115;SDS011;11727;52.134;5.052;2023-09-12T04:38:45;50.00;;;21.88;;
23115;SDS011;11727;52.134;5.052;2023-09-12T04:41:11;49.20;;;20.48;;
23115;SDS011;11727;52.134;5.052;2023-09-12T04:43:41;51.15;;;19.60;;
23115;SDS011;11727;52.134;5.052;2023-09-12T04:46:08;52.53;;;20.40;;
23115;SDS011;11727;52.134;5.052;2023-09-12T04:48:34;50.88;;;20.65;;
23115;SDS011;11727;52.134;5.052;2023-09-12T04:50:59;45.58;;;19.88;;
23115;SDS011;11727;52.134;5.052;2023-09-12T04:53:25;47.75;;;20.63;;
23115;SDS011;11727;52.134;5.052;2023-09-12T04:55:53;46.72;;;22.20;;
23115;SDS011;11727;52.134;5.052;2023-09-12T04:58:19;53.95;;;21.67;;
23115;SDS011;11727;52.134;5.052;2023-09-12T05:00:45;48.53;;;20.50;;
23115;SDS011;11727;52.134;5.052;2023-09-12T05:03:10;47.75;;;20.38;;
23115;SDS011;11727;52.134;5.052;2023-09-12T05:05:36;49.65;;;20.40;;
23115;SDS011;11727;52.134;5.052;2023-09-12T05:08:05;48.80;;;23.15;;
23115;SDS011;11727;52.134;5.052;2023-09-12T05:10:30;49.63;;;19.60;;
23115;SDS011;11727;52.134;5.052;2023-09-12T05:12:56;44.35;;;19.92;;
23115;SDS011;11727;52.134;5.052;2023-09-12T05:15:22;45.00;;;20.48;;
23115;SDS011;11727;52.134;5.052;2023-09-12T05:17:47;46.53;;;20.73;;
23115;SDS011;11727;52.134;5.052;2023-09-12T05:20:13;48.45;;;19.25;;
23115;SDS011;11727;52.134;5.052;2023-09-12T05:22:38;49.08;;;20.17;;
23115;SDS011;11727;52.134;5.052;2023-09-12T05:25:06;46.95;;;19.67;;
23115;SDS011;11727;52.134;5.052;2023-09-12T05:27:32;40.35;;;18.33;;
23115;SDS011;11727;52.134;5.052;2023-09-12T05:29:58;45.10;;;18.77;;
23115;SDS011;11727;52.134;5.052;2023-09-12T05:34:51;43.13;;;18.77;;
23115;SDS011;11727;52.134;5.052;2023-09-12T05:37:17;39.55;;;17.48;;
23115;SDS011;11727;52.134;5.052;2023-09-12T05:39:44;40.40;;;18.13;;
23115;SDS011;11727;52.134;5.052;2023-09-12T05:42:09;37.33;;;16.92;;
23115;SDS011;11727;52.134;5.052;2023-09-12T05:44:41;41.17;;;16.98;;
23115;SDS011;11727;52.134;5.052;2023-09-12T05:47:11;38.00;;;16.98;;
23115;SDS011;11727;52.134;5.052;2023-09-12T05:49:41;38.30;;;16.20;;
23115;SDS011;11727;52.134;5.052;2023-09-12T05:53:05;36.15;;;15.95;;
23115;SDS011;11727;52.134;5.052;2023-09-12T05:55:31;33.80;;;16.23;;
23115;SDS011;11727;52.134;5.052;2023-09-12T05:57:58;32.72;;;15.38;;
23115;SDS011;11727;52.134;5.052;2023-09-12T06:00:24;32.72;;;15.98;;
23115;SDS011;11727;52.134;5.052;2023-09-12T06:02:50;37.40;;;15.85;;
23115;SDS011;11727;52.134;5.052;2023-09-12T06:05:23;29.25;;;14.25;;
23115;SDS011;11727;52.134;5.052;2023-09-12T06:07:49;39.78;;;16.50;;
23115;SDS011;11727;52.134;5.052;2023-09-12T06:10:15;39.65;;;15.48;;
23115;SDS011;11727;52.134;5.052;2023-09-12T06:12:41;32.60;;;15.00;;
23115;SDS011;11727;52.134;5.052;2023-09-12T06:15:30;34.45;;;15.38;;
23115;SDS011;11727;52.134;5.052;2023-09-12T06:18:13;38.33;;;16.45;;
23115;SDS011;11727;52.134;5.052;2023-09-12T06:20:39;35.80;;;16.15;;
23115;SDS011;11727;52.134;5.052;2023-09-12T06:23:04;36.65;;;16.30;;
23115;SDS011;11727;52.134;5.052;2023-09-12T06:25:30;37.53;;;16.13;;
23115;SDS011;11727;52.134;5.052;2023-09-12T06:27:56;42.50;;;18.45;;
23115;SDS011;11727;52.134;5.052;2023-09-12T06:30:21;32.63;;;14.45;;
23115;SDS011;11727;52.134;5.052;2023-09-12T06:32:47;38.08;;;15.02;;
23115;SDS011;11727;52.134;5.052;2023-09-12T06:35:12;37.83;;;16.13;;
23115;SDS011;11727;52.134;5.052;2023-09-12T06:37:38;39.47;;;16.40;;
23115;SDS011;11727;52.134;5.052;2023-09-12T06:40:04;37.28;;;15.98;;
23115;SDS011;11727;52.134;5.052;2023-09-12T06:42:31;37.88;;;17.20;;
23115;SDS011;11727;52.134;5.052;2023-09-12T06:44:57;38.78;;;17.27;;
23115;SDS011;11727;52.134;5.052;2023-09-12T06:47:22;43.80;;;16.92;;
23115;SDS011;11727;52.134;5.052;2023-09-12T06:49:48;50.15;;;19.05;;
23115;SDS011;11727;52.134;5.052;2023-09-12T06:52:14;44.15;;;17.50;;
23115;SDS011;11727;52.134;5.052;2023-09-12T06:54:39;45.50;;;17.42;;
23115;SDS011;11727;52.134;5.052;2023-09-12T06:57:05;38.08;;;16.48;;
23115;SDS011;11727;52.134;5.052;2023-09-12T06:59:30;44.47;;;17.70;;
23115;SDS011;11727;52.134;5.052;2023-09-12T07:01:56;40.30;;;17.15;;
23115;SDS011;11727;52.134;5.052;2023-09-12T07:04:21;43.88;;;17.83;;
23115;SDS011;11727;52.134;5.052;2023-09-12T07:06:47;43.72;;;18.40;;
23115;SDS011;11727;52.134;5.052;2023-09-12T07:09:13;45.72;;;17.40;;
23115;SDS011;11727;52.134;5.052;2023-09-12T07:11:40;52.72;;;19.45;;
23115;SDS011;11727;52.134;5.052;2023-09-12T07:14:06;47.15;;;17.77;;
23115;SDS011;11727;52.134;5.052;2023-09-12T07:16:32;41.78;;;17.50;;
23115;SDS011;11727;52.134;5.052;2023-09-12T07:18:58;42.13;;;17.05;;
23115;SDS011;11727;52.134;5.052;2023-09-12T07:21:24;39.90;;;17.48;;
23115;SDS011;11727;52.134;5.052;2023-09-12T07:23:49;46.30;;;17.95;;
23115;SDS011;11727;52.134;5.052;2023-09-12T07:26:15;45.78;;;17.55;;
23115;SDS011;11727;52.134;5.052;2023-09-12T07:28:41;51.33;;;20.65;;
23115;SDS011;11727;52.134;5.052;2023-09-12T07:31:06;42.40;;;17.58;;
23115;SDS011;11727;52.134;5.052;2023-09-12T07:33:32;52.75;;;19.33;;
23115;SDS011;11727;52.134;5.052;2023-09-12T07:35:58;43.92;;;17.83;;
23115;SDS011;11727;52.134;5.052;2023-09-12T07:38:24;51.45;;;19.75;;
23115;SDS011;11727;52.134;5.052;2023-09-12T07:40:50;55.53;;;19.95;;
23115;SDS011;11727;52.134;5.052;2023-09-12T07:43:16;46.05;;;18.85;;
23115;SDS011;11727;52.134;5.052;2023-09-12T07:45:41;50.80;;;17.73;;
23115;SDS011;11727;52.134;5.052;2023-09-12T07:48:08;51.08;;;18.63;;
23115;SDS011;11727;52.134;5.052;2023-09-12T07:50:36;58.92;;;20.58;;
23115;SDS011;11727;52.134;5.052;2023-09-12T07:53:04;50.75;;;18.92;;
23115;SDS011;11727;52.134;5.052;2023-09-12T07:55:30;51.47;;;18.40;;
23115;SDS011;11727;52.134;5.052;2023-09-12T07:58:01;47.78;;;18.27;;
23115;SDS011;11727;52.134;5.052;2023-09-12T08:00:27;49.35;;;18.75;;
23115;SDS011;11727;52.134;5.052;2023-09-12T08:02:53;50.72;;;18.77;;
23115;SDS011;11727;52.134;5.052;2023-09-12T08:05:18;60.83;;;21.75;;
23115;SDS011;11727;52.134;5.052;2023-09-12T08:07:44;64.20;;;21.90;;
23115;SDS011;11727;52.134;5.052;2023-09-12T08:10:10;53.85;;;20.10;;
23115;SDS011;11727;52.134;5.052;2023-09-12T08:12:35;54.15;;;20.60;;
23115;SDS011;11727;52.134;5.052;2023-09-12T08:15:03;57.30;;;21.92;;
23115;SDS011;11727;52.134;5.052;2023-09-12T08:17:29;58.30;;;20.77;;
23115;SDS011;11727;52.134;5.052;2023-09-12T08:19:55;59.28;;;21.35;;
23115;SDS011;11727;52.134;5.052;2023-09-12T08:22:21;57.65;;;22.33;;
23115;SDS011;11727;52.134;5.052;2023-09-12T08:24:46;61.45;;;21.83;;
23115;SDS011;11727;52.134;5.052;2023-09-12T08:27:12;50.00;;;20.67;;
23115;SDS011;11727;52.134;5.052;2023-09-12T08:29:38;49.80;;;20.00;;
23115;SDS011;11727;52.134;5.052;2023-09-12T08:32:04;61.47;;;22.35;;
23115;SDS011;11727;52.134;5.052;2023-09-12T08:34:30;51.58;;;22.25;;
23115;SDS011;11727;52.134;5.052;2023-09-12T08:36:55;64.75;;;21.92;;
23115;SDS011;11727;52.134;5.052;2023-09-12T08:39:25;61.25;;;22.58;;
23115;SDS011;11727;52.134;5.052;2023-09-12T08:41:53;59.22;;;22.23;;
23115;SDS011;11727;52.134;5.052;2023-09-12T08:44:19;54.25;;;21.10;;
23115;SDS011;11727;52.134;5.052;2023-09-12T08:46:46;53.95;;;19.63;;
23115;SDS011;11727;52.134;5.052;2023-09-12T08:49:12;44.58;;;18.52;;
23115;SDS011;11727;52.134;5.052;2023-09-12T08:51:40;57.05;;;20.88;;
23115;SDS011;11727;52.134;5.052;2023-09-12T08:54:09;48.00;;;21.00;;
23115;SDS011;11727;52.134;5.052;2023-09-12T08:56:36;60.85;;;22.90;;
23115;SDS011;11727;52.134;5.052;2023-09-12T08:59:06;59.50;;;21.25;;
23115;SDS011;11727;52.134;5.052;2023-09-12T09:01:33;48.13;;;20.10;;
23115;SDS011;11727;52.134;5.052;2023-09-12T09:04:01;44.97;;;19.75;;
23115;SDS011;11727;52.134;5.052;2023-09-12T09:06:28;55.80;;;20.83;;
23115;SDS011;11727;52.134;5.052;2023-09-12T09:08:56;46.50;;;20.73;;
23115;SDS011;11727;52.134;5.052;2023-09-12T09:11:22;46.88;;;19.80;;
23115;SDS011;11727;52.134;5.052;2023-09-12T09:13:49;56.38;;;21.27;;
23115;SDS011;11727;52.134;5.052;2023-09-12T09:16:16;48.42;;;21.25;;
23115;SDS011;11727;52.134;5.052;2023-09-12T09:21:20;49.40;;;18.58;;
23115;SDS011;11727;52.134;5.052;2023-09-12T09:23:50;51.30;;;20.23;;
23115;SDS011;11727;52.134;5.052;2023-09-12T09:26:17;47.72;;;19.33;;
23115;SDS011;11727;52.134;5.052;2023-09-12T09:28:44;50.30;;;20.20;;
23115;SDS011;11727;52.134;5.052;2023-09-12T09:31:10;50.85;;;18.90;;
23115;SDS011;11727;52.134;5.052;2023-09-12T09:33:42;45.13;;;19.10;;
23115;SDS011;11727;52.134;5.052;2023-09-12T09:36:16;42.50;;;17.92;;
23115;SDS011;11727;52.134;5.052;2023-09-12T09:38:41;41.72;;;18.80;;
23115;SDS011;11727;52.134;5.052;2023-09-12T09:41:08;49.25;;;18.88;;
23115;SDS011;11727;52.134;5.052;2023-09-12T09:43:34;44.15;;;19.90;;
23115;SDS011;11727;52.134;5.052;2023-09-12T09:45:59;44.85;;;20.40;;
23115;SDS011;11727;52.134;5.052;2023-09-12T09:48:26;51.40;;;20.27;;
23115;SDS011;11727;52.134;5.052;2023-09-12T09:51:01;54.88;;;21.58;;
23115;SDS011;11727;52.134;5.052;2023-09-12T09:53:28;38.97;;;18.35;;
23115;SDS011;11727;52.134;5.052;2023-09-12T09:56:10;45.53;;;19.67;;
23115;SDS011;11727;52.134;5.052;2023-09-12T09:58:52;49.42;;;18.48;;
23115;SDS011;11727;52.134;5.052;2023-09-12T10:01:20;41.00;;;17.92;;
23115;SDS011;11727;52.134;5.052;2023-09-12T10:03:48;41.67;;;17.23;;
23115;SDS011;11727;52.134;5.052;2023-09-12T10:06:16;42.42;;;18.55;;
23115;SDS011;11727;52.134;5.052;2023-09-12T10:08:49;37.80;;;17.45;;
23115;SDS011;11727;52.134;5.052;2023-09-12T10:11:16;40.55;;;17.63;;
23115;SDS011;11727;52.134;5.052;2023-09-12T10:13:49;36.75;;;16.85;;
23115;SDS011;11727;52.134;5.052;2023-09-12T10:16:19;37.88;;;16.70;;
23115;SDS011;11727;52.134;5.052;2023-09-12T10:18:56;43.42;;;16.85;;
23115;SDS011;11727;52.134;5.052;2023-09-12T10:21:29;38.38;;;16.88;;
23115;SDS011;11727;52.134;5.052;2023-09-12T10:23:58;37.63;;;16.75;;
23115;SDS011;11727;52.134;5.052;2023-09-12T10:26:24;39.78;;;18.25;;
23115;SDS011;11727;52.134;5.052;2023-09-12T10:28:51;44.38;;;18.08;;
23115;SDS011;11727;52.134;5.052;2023-09-12T10:31:17;38.17;;;16.50;;
23115;SDS011;11727;52.134;5.052;2023-09-12T10:33:44;38.28;;;16.70;;
23115;SDS011;11727;52.134;5.052;2023-09-12T10:36:11;36.45;;;16.75;;
23115;SDS011;11727;52.134;5.052;2023-09-12T10:38:42;37.00;;;17.48;;
23115;SDS011;11727;52.134;5.052;2023-09-12T10:41:13;39.22;;;17.52;;
23115;SDS011;11727;52.134;5.052;2023-09-12T10:43:39;42.58;;;18.73;;
23115;SDS011;11727;52.134;5.052;2023-09-12T10:46:07;40.50;;;18.35;;
23115;SDS011;11727;52.134;5.052;2023-09-12T10:48:34;44.25;;;17.77;;
23115;SDS011;11727;52.134;5.052;2023-09-12T10:51:00;39.67;;;16.85;;
23115;SDS011;11727;52.134;5.052;2023-09-12T10:56:15;36.97;;;16.95;;
23115;SDS011;11727;52.134;5.052;2023-09-12T10:59:25;30.38;;;14.52;;
23115;SDS011;11727;52.134;5.052;2023-09-12T11:01:34;31.15;;;15.25;;
23115;SDS011;11727;52.134;5.052;2023-09-12T11:06:49;33.58;;;15.93;;
23115;SDS011;11727;52.134;5.052;2023-09-12T11:09:21;29.30;;;13.73;;
23115;SDS011;11727;52.134;5.052;2023-09-12T12:07:35;23.40;;;11.75;;
23115;SDS011;11727;52.134;5.052;2023-09-12T12:10:01;28.23;;;12.05;;
23115;SDS011;11727;52.134;5.052;2023-09-12T12:12:29;23.88;;;11.88;;
23115;SDS011;11727;52.134;5.052;2023-09-12T12:14:54;23.60;;;10.73;;
23115;SDS011;11727;52.134;5.052;2023-09-12T12:17:20;24.55;;;12.40;;
23115;SDS011;11727;52.134;5.052;2023-09-12T12:19:49;25.63;;;11.82;;
23115;SDS011;11727;52.134;5.052;2023-09-12T12:22:17;21.38;;;10.27;;
23115;SDS011;11727;52.134;5.052;2023-09-12T12:25:14;16.23;;;8.70;;
23115;SDS011;11727;52.134;5.052;2023-09-12T12:27:41;17.58;;;9.07;;
23115;SDS011;11727;52.134;5.052;2023-09-12T12:30:09;13.48;;;5.75;;
23115;SDS011;11727;52.134;5.052;2023-09-12T12:32:41;11.65;;;4.50;;
23115;SDS011;11727;52.134;5.052;2023-09-12T12:35:07;8.63;;;4.72;;
23115;SDS011;11727;52.134;5.052;2023-09-12T12:37:49;7.57;;;4.22;;
23115;SDS011;11727;52.134;5.052;2023-09-12T12:40:49;12.02;;;6.13;;
23115;SDS011;11727;52.134;5.052;2023-09-12T12:43:24;20.10;;;10.35;;
23115;SDS011;11727;52.134;5.052;2023-09-12T12:46:56;27.88;;;12.95;;
23115;SDS011;11727;52.134;5.052;2023-09-12T12:49:21;33.67;;;13.38;;
23115;SDS011;11727;52.134;5.052;2023-09-12T12:51:48;23.48;;;9.93;;
23115;SDS011;11727;52.134;5.052;2023-09-12T12:54:14;20.85;;;10.50;;
23115;SDS011;11727;52.134;5.052;2023-09-12T12:56:41;15.40;;;7.00;;
23115;SDS011;11727;52.134;5.052;2023-09-12T12:59:10;13.80;;;5.75;;
23115;SDS011;11727;52.134;5.052;2023-09-12T13:01:36;13.82;;;5.80;;
23115;SDS011;11727;52.134;5.052;2023-09-12T13:04:06;12.65;;;4.28;;
23115;SDS011;11727;52.134;5.052;2023-09-12T13:06:37;11.55;;;5.03;;
23115;SDS011;11727;52.134;5.052;2023-09-12T13:09:05;10.95;;;5.10;;
23115;SDS011;11727;52.134;5.052;2023-09-12T13:11:31;9.07;;;4.22;;
23115;SDS011;11727;52.134;5.052;2023-09-12T13:14:00;11.60;;;4.47;;
23115;SDS011;11727;52.134;5.052;2023-09-12T13:16:26;8.90;;;4.25;;
23115;SDS011;11727;52.134;5.052;2023-09-12T13:18:53;8.73;;;5.38;;
23115;SDS011;11727;52.134;5.052;2023-09-12T13:21:19;11.40;;;5.45;;
23115;SDS011;11727;52.134;5.052;2023-09-12T13:23:44;15.27;;;5.57;;
23115;SDS011;11727;52.134;5.052;2023-09-12T13:26:10;14.25;;;6.45;;
23115;SDS011;11727;52.134;5.052;2023-09-12T13:28:37;13.35;;;6.57;;
23115;SDS011;11727;52.134;5.052;2023-09-12T13:31:03;12.35;;;6.88;;
23115;SDS011;11727;52.134;5.052;2023-09-12T13:33:32;14.40;;;6.88;;
23115;SDS011;11727;52.134;5.052;2023-09-12T13:36:00;13.38;;;5.50;;
23115;SDS011;11727;52.134;5.052;2023-09-12T13:38:26;11.68;;;5.75;;
23115;SDS011;11727;52.134;5.052;2023-09-12T13:40:51;7.55;;;4.45;;
23115;SDS011;11727;52.134;5.052;2023-09-12T13:43:17;13.30;;;4.95;;
23115;SDS011;11727;52.134;5.052;2023-09-12T13:45:47;7.53;;;4.80;;
23115;SDS011;11727;52.134;5.052;2023-09-12T13:48:12;9.80;;;4.90;;
23115;SDS011;11727;52.134;5.052;2023-09-12T13:50:38;10.38;;;4.90;;
23115;SDS011;11727;52.134;5.052;2023-09-12T13:53:04;8.43;;;4.60;;
23115;SDS011;11727;52.134;5.052;2023-09-12T13:55:32;8.38;;;3.97;;
23115;SDS011;11727;52.134;5.052;2023-09-12T13:57:59;9.70;;;3.92;;
23115;SDS011;11727;52.134;5.052;2023-09-12T14:00:26;8.73;;;4.77;;
23115;SDS011;11727;52.134;5.052;2023-09-12T14:02:51;8.93;;;4.00;;
23115;SDS011;11727;52.134;5.052;2023-09-12T14:05:17;8.40;;;4.30;;
23115;SDS011;11727;52.134;5.052;2023-09-12T14:07:43;7.10;;;4.03;;
23115;SDS011;11727;52.134;5.052;2023-09-12T14:10:09;5.47;;;3.25;;
23115;SDS011;11727;52.134;5.052;2023-09-12T14:12:34;7.35;;;3.78;;
23115;SDS011;11727;52.134;5.052;2023-09-12T14:15:01;8.82;;;4.55;;
23115;SDS011;11727;52.134;5.052;2023-09-12T14:17:31;11.30;;;4.57;;
23115;SDS011;11727;52.134;5.052;2023-09-12T14:19:57;7.57;;;4.40;;
23115;SDS011;11727;52.134;5.052;2023-09-12T14:22:23;14.52;;;6.40;;
23115;SDS011;11727;52.134;5.052;2023-09-12T14:24:48;17.42;;;7.15;;
23115;SDS011;11727;52.134;5.052;2023-09-12T14:27:15;13.07;;;7.30;;
23115;SDS011;11727;52.134;5.052;2023-09-12T14:29:41;12.88;;;7.55;;
23115;SDS011;11727;52.134;5.052;2023-09-12T14:32:10;14.07;;;7.57;;
23115;SDS011;11727;52.134;5.052;2023-09-12T14:34:37;13.80;;;7.10;;
23115;SDS011;11727;52.134;5.052;2023-09-12T14:37:03;12.45;;;6.43;;
23115;SDS011;11727;52.134;5.052;2023-09-12T14:39:28;17.15;;;5.90;;
23115;SDS011;11727;52.134;5.052;2023-09-12T14:41:54;14.30;;;6.97;;
23115;SDS011;11727;52.134;5.052;2023-09-12T14:44:21;14.20;;;7.30;;
23115;SDS011;11727;52.134;5.052;2023-09-12T14:46:50;17.80;;;8.32;;
23115;SDS011;11727;52.134;5.052;2023-09-12T14:49:16;17.15;;;7.30;;
23115;SDS011;11727;52.134;5.052;2023-09-12T14:51:42;11.65;;;6.35;;
23115;SDS011;11727;52.134;5.052;2023-09-12T14:54:08;11.13;;;5.75;;
23115;SDS011;11727;52.134;5.052;2023-09-12T14:56:34;7.03;;;4.53;;
23115;SDS011;11727;52.134;5.052;2023-09-12T14:59:00;7.88;;;4.03;;
23115;SDS011;11727;52.134;5.052;2023-09-12T15:01:27;7.50;;;3.13;;
23115;SDS011;11727;52.134;5.052;2023-09-12T15:03:53;6.25;;;3.08;;
23115;SDS011;11727;52.134;5.052;2023-09-12T15:06:19;5.28;;;3.20;;
23115;SDS011;11727;52.134;5.052;2023-09-12T15:08:45;8.30;;;3.20;;
23115;SDS011;11727;52.134;5.052;2023-09-12T15:11:11;4.07;;;2.55;;
23115;SDS011;11727;52.134;5.052;2023-09-12T15:13:36;6.70;;;3.50;;
23115;SDS011;11727;52.134;5.052;2023-09-12T15:16:02;5.47;;;3.28;;
23115;SDS011;11727;52.134;5.052;2023-09-12T15:18:29;7.10;;;3.97;;
23115;SDS011;11727;52.134;5.052;2023-09-12T15:20:55;8.95;;;4.25;;
23115;SDS011;11727;52.134;5.052;2023-09-12T15:23:21;6.47;;;3.67;;
23115;SDS011;11727;52.134;5.052;2023-09-12T15:25:48;6.88;;;4.35;;
23115;SDS011;11727;52.134;5.052;2023-09-12T15:28:14;5.88;;;3.47;;
23115;SDS011;11727;52.134;5.052;2023-09-12T15:30:39;9.63;;;3.75;;
23115;SDS011;11727;52.134;5.052;2023-09-12T15:33:05;8.25;;;4.53;;
23115;SDS011;11727;52.134;5.052;2023-09-12T15:35:31;7.70;;;3.15;;
23115;SDS011;11727;52.134;5.052;2023-09-12T15:37:56;6.22;;;3.38;;
23115;SDS011;11727;52.134;5.052;2023-09-12T15:40:22;7.25;;;3.85;;